sensor_id;sensor_type;location;lat;lon;timestamp;temperature;humidity
81222;DHT22;70691;52.492;13.420;2023-07-24T00:01:18;22.30;44.60
81222;DHT22;70691;52.492;13.420;2023-07-24T00:03:45;22.30;44.60
81222;DHT22;70691;52.492;13.420;2023-07-24T00:06:11;22.40;44.20
81222;DHT22;70691;52.492;13.420;2023-07-24T00:08:37;22.30;44.30
81222;DHT22;70691;52.492;13.420;2023-07-24T00:11:03;22.30;44.20
81222;DHT22;70691;52.492;13.420;2023-07-24T00:13:30;22.30;44.20
81222;DHT22;70691;52.492;13.420;2023-07-24T00:15:57;22.40;43.80
81222;DHT22;70691;52.492;13.420;2023-07-24T00:18:22;22.40;43.80
81222;DHT22;70691;52.492;13.420;2023-07-24T00:20:48;22.40;43.50
81222;DHT22;70691;52.492;13.420;2023-07-24T00:23:14;22.40;43.30
81222;DHT22;70691;52.492;13.420;2023-07-24T00:25:39;22.40;43.40
81222;DHT22;70691;52.492;13.420;2023-07-24T00:28:05;22.40;43.20
81222;DHT22;70691;52.492;13.420;2023-07-24T00:30:30;22.30;43.30
81222;DHT22;70691;52.492;13.420;2023-07-24T00:32:56;22.30;43.30
81222;DHT22;70691;52.492;13.420;2023-07-24T00:35:22;22.30;43.20
81222;DHT22;70691;52.492;13.420;2023-07-24T00:37:47;22.40;42.80
81222;DHT22;70691;52.492;13.420;2023-07-24T00:40:13;22.40;42.60
81222;DHT22;70691;52.492;13.420;2023-07-24T00:42:39;22.30;42.50
81222;DHT22;70691;52.492;13.420;2023-07-24T00:45:05;22.40;42.30
81222;DHT22;70691;52.492;13.420;2023-07-24T00:47:30;22.30;42.40
81222;DHT22;70691;52.492;13.420;2023-07-24T00:49:56;22.30;42.50
81222;DHT22;70691;52.492;13.420;2023-07-24T00:52:22;22.30;42.50
81222;DHT22;70691;52.492;13.420;2023-07-24T00:54:49;22.30;42.60
81222;DHT22;70691;52.492;13.420;2023-07-24T00:57:15;22.20;42.70
81222;DHT22;70691;52.492;13.420;2023-07-24T00:59:41;22.20;42.80
81222;DHT22;70691;52.492;13.420;2023-07-24T01:02:08;22.20;42.80
81222;DHT22;70691;52.492;13.420;2023-07-24T01:04:34;22.20;42.70
81222;DHT22;70691;52.492;13.420;2023-07-24T01:07:00;22.20;42.80
81222;DHT22;70691;52.492;13.420;2023-07-24T01:09:26;22.20;42.70
81222;DHT22;70691;52.492;13.420;2023-07-24T01:12:05;22.20;42.80
81222;DHT22;70691;52.492;13.420;2023-07-24T01:14:46;22.10;42.90
81222;DHT22;70691;52.492;13.420;2023-07-24T01:17:15;22.10;43.00
81222;DHT22;70691;52.492;13.420;2023-07-24T01:19:48;22.10;43.30
81222;DHT22;70691;52.492;13.420;2023-07-24T01:25:05;22.00;43.40
81222;DHT22;70691;52.492;13.420;2023-07-24T01:27:35;22.00;43.50
81222;DHT22;70691;52.492;13.420;2023-07-24T01:30:00;22.00;43.60
81222;DHT22;70691;52.492;13.420;2023-07-24T01:32:26;22.00;43.70
81222;DHT22;70691;52.492;13.420;2023-07-24T01:34:54;22.00;43.80
81222;DHT22;70691;52.492;13.420;2023-07-24T01:37:20;22.00;44.00
81222;DHT22;70691;52.492;13.420;2023-07-24T01:39:48;22.00;44.00
81222;DHT22;70691;52.492;13.420;2023-07-24T01:42:14;22.00;44.10
81222;DHT22;70691;52.492;13.420;2023-07-24T01:44:40;22.00;45.20
81222;DHT22;70691;52.492;13.420;2023-07-24T01:47:05;22.00;44.20
81222;DHT22;70691;52.492;13.420;2023-07-24T01:49:31;22.00;44.30
81222;DHT22;70691;52.492;13.420;2023-07-24T01:51:57;22.00;44.40
81222;DHT22;70691;52.492;13.420;2023-07-24T01:54:23;22.00;44.50
81222;DHT22;70691;52.492;13.420;2023-07-24T01:56:49;22.00;44.70
81222;DHT22;70691;52.492;13.420;2023-07-24T01:59:14;22.00;44.80
81222;DHT22;70691;52.492;13.420;2023-07-24T02:01:40;22.00;44.80
81222;DHT22;70691;52.492;13.420;2023-07-24T02:04:06;22.00;44.80
81222;DHT22;70691;52.492;13.420;2023-07-24T02:06:32;22.00;44.60
81222;DHT22;70691;52.492;13.420;2023-07-24T02:08:57;22.00;44.60
81222;DHT22;70691;52.492;13.420;2023-07-24T02:11:23;22.00;44.40
81222;DHT22;70691;52.492;13.420;2023-07-24T02:13:48;22.00;44.40
81222;DHT22;70691;52.492;13.420;2023-07-24T02:16:14;22.00;44.40
81222;DHT22;70691;52.492;13.420;2023-07-24T02:18:43;22.00;44.30
81222;DHT22;70691;52.492;13.420;2023-07-24T02:21:09;22.00;44.40
81222;DHT22;70691;52.492;13.420;2023-07-24T02:23:35;21.90;44.40
81222;DHT22;70691;52.492;13.420;2023-07-24T02:26:01;21.90;44.40
81222;DHT22;70691;52.492;13.420;2023-07-24T02:28:26;21.90;44.40
81222;DHT22;70691;52.492;13.420;2023-07-24T02:30:52;21.90;44.30
81222;DHT22;70691;52.492;13.420;2023-07-24T02:33:22;21.90;44.30
81222;DHT22;70691;52.492;13.420;2023-07-24T02:35:49;21.90;44.40
81222;DHT22;70691;52.492;13.420;2023-07-24T02:38:16;21.90;44.60
81222;DHT22;70691;52.492;13.420;2023-07-24T02:40:43;21.90;44.60
81222;DHT22;70691;52.492;13.420;2023-07-24T02:43:09;21.90;44.70
81222;DHT22;70691;52.492;13.420;2023-07-24T02:45:36;21.90;44.90
81222;DHT22;70691;52.492;13.420;2023-07-24T02:48:01;22.00;45.00
81222;DHT22;70691;52.492;13.420;2023-07-24T02:50:28;22.00;45.10
81222;DHT22;70691;52.492;13.420;2023-07-24T02:52:53;22.00;45.10
81222;DHT22;70691;52.492;13.420;2023-07-24T02:55:19;22.00;45.30
81222;DHT22;70691;52.492;13.420;2023-07-24T02:57:45;22.10;45.50
81222;DHT22;70691;52.492;13.420;2023-07-24T03:00:11;22.10;45.70
81222;DHT22;70691;52.492;13.420;2023-07-24T03:02:37;22.00;45.90
81222;DHT22;70691;52.492;13.420;2023-07-24T03:05:03;22.20;46.00
81222;DHT22;70691;52.492;13.420;2023-07-24T03:07:29;22.30;46.90
81222;DHT22;70691;52.492;13.420;2023-07-24T03:09:55;22.30;45.70
81222;DHT22;70691;52.492;13.420;2023-07-24T03:12:20;22.30;45.90
81222;DHT22;70691;52.492;13.420;2023-07-24T03:14:47;22.20;46.20
81222;DHT22;70691;52.492;13.420;2023-07-24T03:17:13;22.20;46.40
81222;DHT22;70691;52.492;13.420;2023-07-24T03:19:39;22.10;46.80
81222;DHT22;70691;52.492;13.420;2023-07-24T03:22:05;22.20;46.90
81222;DHT22;70691;52.492;13.420;2023-07-24T03:24:31;22.10;47.00
81222;DHT22;70691;52.492;13.420;2023-07-24T03:26:56;22.10;47.10
81222;DHT22;70691;52.492;13.420;2023-07-24T03:29:22;22.10;47.30
81222;DHT22;70691;52.492;13.420;2023-07-24T03:31:47;22.20;47.20
81222;DHT22;70691;52.492;13.420;2023-07-24T03:34:13;22.20;47.40
81222;DHT22;70691;52.492;13.420;2023-07-24T03:36:39;22.20;47.10
81222;DHT22;70691;52.492;13.420;2023-07-24T03:39:07;22.10;47.40
81222;DHT22;70691;52.492;13.420;2023-07-24T03:41:32;22.10;47.60
81222;DHT22;70691;52.492;13.420;2023-07-24T03:43:58;22.10;47.80
81222;DHT22;70691;52.492;13.420;2023-07-24T03:46:24;22.20;48.10
81222;DHT22;70691;52.492;13.420;2023-07-24T03:48:50;22.20;48.60
81222;DHT22;70691;52.492;13.420;2023-07-24T03:51:16;22.20;49.00
81222;DHT22;70691;52.492;13.420;2023-07-24T03:53:41;22.30;49.20
81222;DHT22;70691;52.492;13.420;2023-07-24T03:56:07;22.30;49.10
81222;DHT22;70691;52.492;13.420;2023-07-24T03:58:33;22.20;49.10
81222;DHT22;70691;52.492;13.420;2023-07-24T04:00:58;22.30;48.90
81222;DHT22;70691;52.492;13.420;2023-07-24T04:03:24;22.40;48.70
81222;DHT22;70691;52.492;13.420;2023-07-24T04:05:50;22.40;49.70
81222;DHT22;70691;52.492;13.420;2023-07-24T04:08:15;22.40;50.30
81222;DHT22;70691;52.492;13.420;2023-07-24T04:10:41;22.40;50.80
81222;DHT22;70691;52.492;13.420;2023-07-24T04:13:07;22.50;51.30
81222;DHT22;70691;52.492;13.420;2023-07-24T04:15:32;22.30;51.60
81222;DHT22;70691;52.492;13.420;2023-07-24T04:17:58;22.30;51.90
81222;DHT22;70691;52.492;13.420;2023-07-24T04:20:23;22.20;52.20
81222;DHT22;70691;52.492;13.420;2023-07-24T04:22:49;22.10;53.10
81222;DHT22;70691;52.492;13.420;2023-07-24T04:25:15;22.20;53.00
81222;DHT22;70691;52.492;13.420;2023-07-24T04:27:41;22.10;53.20
81222;DHT22;70691;52.492;13.420;2023-07-24T04:30:07;22.10;53.30
81222;DHT22;70691;52.492;13.420;2023-07-24T04:32:33;22.10;53.10
81222;DHT22;70691;52.492;13.420;2023-07-24T04:34:58;22.10;53.10
81222;DHT22;70691;52.492;13.420;2023-07-24T04:37:24;22.20;53.00
81222;DHT22;70691;52.492;13.420;2023-07-24T04:39:50;22.20;52.90
81222;DHT22;70691;52.492;13.420;2023-07-24T04:42:15;22.20;52.90
81222;DHT22;70691;52.492;13.420;2023-07-24T04:44:41;22.30;52.50
81222;DHT22;70691;52.492;13.420;2023-07-24T04:47:07;22.40;52.20
81222;DHT22;70691;52.492;13.420;2023-07-24T04:49:32;22.30;52.20
81222;DHT22;70691;52.492;13.420;2023-07-24T04:51:59;22.30;52.40
81222;DHT22;70691;52.492;13.420;2023-07-24T04:54:24;22.50;52.10
81222;DHT22;70691;52.492;13.420;2023-07-24T04:56:50;22.50;51.80
81222;DHT22;70691;52.492;13.420;2023-07-24T04:59:16;22.60;51.80
81222;DHT22;70691;52.492;13.420;2023-07-24T05:01:42;22.80;51.50
81222;DHT22;70691;52.492;13.420;2023-07-24T05:04:08;22.90;51.00
81222;DHT22;70691;52.492;13.420;2023-07-24T05:06:33;22.90;50.80
81222;DHT22;70691;52.492;13.420;2023-07-24T05:09:01;22.90;50.60
81222;DHT22;70691;52.492;13.420;2023-07-24T05:11:27;23.00;50.60
81222;DHT22;70691;52.492;13.420;2023-07-24T05:13:53;23.00;50.50
81222;DHT22;70691;52.492;13.420;2023-07-24T05:16:18;23.10;50.00
81222;DHT22;70691;52.492;13.420;2023-07-24T05:18:44;23.10;49.70
81222;DHT22;70691;52.492;13.420;2023-07-24T05:21:10;23.10;49.90
81222;DHT22;70691;52.492;13.420;2023-07-24T05:23:35;23.20;49.60
81222;DHT22;70691;52.492;13.420;2023-07-24T05:26:02;23.30;49.40
81222;DHT22;70691;52.492;13.420;2023-07-24T05:28:29;23.40;49.30
81222;DHT22;70691;52.492;13.420;2023-07-24T05:30:55;23.50;48.70
81222;DHT22;70691;52.492;13.420;2023-07-24T05:33:21;23.70;48.20
81222;DHT22;70691;52.492;13.420;2023-07-24T05:35:48;23.80;49.00
81222;DHT22;70691;52.492;13.420;2023-07-24T05:38:15;23.80;48.00
81222;DHT22;70691;52.492;13.420;2023-07-24T05:40:40;23.80;47.80
81222;DHT22;70691;52.492;13.420;2023-07-24T05:43:06;23.90;47.50
81222;DHT22;70691;52.492;13.420;2023-07-24T05:45:32;23.90;47.40
81222;DHT22;70691;52.492;13.420;2023-07-24T05:47:57;24.00;47.00
81222;DHT22;70691;52.492;13.420;2023-07-24T05:50:23;24.10;46.70
81222;DHT22;70691;52.492;13.420;2023-07-24T05:52:49;24.20;46.50
81222;DHT22;70691;52.492;13.420;2023-07-24T05:55:14;24.40;46.00
81222;DHT22;70691;52.492;13.420;2023-07-24T05:57:40;24.40;45.90
81222;DHT22;70691;52.492;13.420;2023-07-24T06:00:09;24.50;45.60
81222;DHT22;70691;52.492;13.420;2023-07-24T06:02:34;24.50;45.40
81222;DHT22;70691;52.492;13.420;2023-07-24T06:05:00;24.60;45.00
81222;DHT22;70691;52.492;13.420;2023-07-24T06:07:26;24.80;44.50
81222;DHT22;70691;52.492;13.420;2023-07-24T06:09:51;24.80;44.30
81222;DHT22;70691;52.492;13.420;2023-07-24T06:12:17;24.90;43.50
81222;DHT22;70691;52.492;13.420;2023-07-24T06:14:43;25.00;43.60
81222;DHT22;70691;52.492;13.420;2023-07-24T06:17:08;25.10;43.30
81222;DHT22;70691;52.492;13.420;2023-07-24T06:19:34;25.10;42.90
81222;DHT22;70691;52.492;13.420;2023-07-24T06:22:00;25.10;43.30
81222;DHT22;70691;52.492;13.420;2023-07-24T06:24:25;25.10;42.50
81222;DHT22;70691;52.492;13.420;2023-07-24T06:26:51;25.20;42.50
81222;DHT22;70691;52.492;13.420;2023-07-24T06:29:17;25.20;42.70
81222;DHT22;70691;52.492;13.420;2023-07-24T06:31:42;25.20;42.20
81222;DHT22;70691;52.492;13.420;2023-07-24T06:34:08;25.20;42.00
81222;DHT22;70691;52.492;13.420;2023-07-24T06:36:33;25.20;41.80
81222;DHT22;70691;52.492;13.420;2023-07-24T06:38:59;25.30;41.50
81222;DHT22;70691;52.492;13.420;2023-07-24T06:41:25;25.30;41.50
81222;DHT22;70691;52.492;13.420;2023-07-24T06:43:51;25.20;41.70
81222;DHT22;70691;52.492;13.420;2023-07-24T06:46:17;25.30;41.40
81222;DHT22;70691;52.492;13.420;2023-07-24T06:48:43;25.30;41.20
81222;DHT22;70691;52.492;13.420;2023-07-24T06:51:08;25.40;41.10
81222;DHT22;70691;52.492;13.420;2023-07-24T06:53:35;25.50;40.90
81222;DHT22;70691;52.492;13.420;2023-07-24T06:56:01;25.50;40.70
81222;DHT22;70691;52.492;13.420;2023-07-24T06:58:26;25.50;40.70
81222;DHT22;70691;52.492;13.420;2023-07-24T07:00:52;25.70;40.60
81222;DHT22;70691;52.492;13.420;2023-07-24T07:03:17;25.70;40.80
81222;DHT22;70691;52.492;13.420;2023-07-24T07:05:43;25.70;40.30
81222;DHT22;70691;52.492;13.420;2023-07-24T07:08:09;25.80;40.20
81222;DHT22;70691;52.492;13.420;2023-07-24T07:10:34;25.70;40.10
81222;DHT22;70691;52.492;13.420;2023-07-24T07:13:02;25.80;40.30
81222;DHT22;70691;52.492;13.420;2023-07-24T07:15:28;25.80;40.10
81222;DHT22;70691;52.492;13.420;2023-07-24T07:17:54;25.80;40.40
81222;DHT22;70691;52.492;13.420;2023-07-24T07:20:19;25.80;40.10
81222;DHT22;70691;52.492;13.420;2023-07-24T07:22:45;26.00;39.20
81222;DHT22;70691;52.492;13.420;2023-07-24T07:25:11;26.00;38.80
81222;DHT22;70691;52.492;13.420;2023-07-24T07:27:36;26.10;38.70
81222;DHT22;70691;52.492;13.420;2023-07-24T07:30:02;26.20;38.40
81222;DHT22;70691;52.492;13.420;2023-07-24T07:32:29;26.30;38.20
81222;DHT22;70691;52.492;13.420;2023-07-24T07:34:55;26.40;38.00
81222;DHT22;70691;52.492;13.420;2023-07-24T07:37:20;26.40;38.00
81222;DHT22;70691;52.492;13.420;2023-07-24T07:39:46;26.50;37.70
81222;DHT22;70691;52.492;13.420;2023-07-24T07:42:11;26.70;37.20
81222;DHT22;70691;52.492;13.420;2023-07-24T07:44:37;26.80;36.30
81222;DHT22;70691;52.492;13.420;2023-07-24T07:47:03;26.80;36.20
81222;DHT22;70691;52.492;13.420;2023-07-24T07:49:29;26.90;36.30
81222;DHT22;70691;52.492;13.420;2023-07-24T07:51:55;27.00;35.90
81222;DHT22;70691;52.492;13.420;2023-07-24T07:54:20;27.00;36.00
81222;DHT22;70691;52.492;13.420;2023-07-24T07:56:46;27.10;35.40
81222;DHT22;70691;52.492;13.420;2023-07-24T07:59:11;27.10;35.60
81222;DHT22;70691;52.492;13.420;2023-07-24T08:01:37;27.10;36.10
81222;DHT22;70691;52.492;13.420;2023-07-24T08:04:05;27.10;35.90
81222;DHT22;70691;52.492;13.420;2023-07-24T08:06:30;27.10;36.10
81222;DHT22;70691;52.492;13.420;2023-07-24T08:08:56;27.20;35.70
81222;DHT22;70691;52.492;13.420;2023-07-24T08:11:22;27.30;35.10
81222;DHT22;70691;52.492;13.420;2023-07-24T08:13:47;27.30;35.10
81222;DHT22;70691;52.492;13.420;2023-07-24T08:16:16;27.30;35.10
81222;DHT22;70691;52.492;13.420;2023-07-24T08:18:48;27.40;35.30
81222;DHT22;70691;52.492;13.420;2023-07-24T08:21:15;27.50;35.20
81222;DHT22;70691;52.492;13.420;2023-07-24T08:23:41;27.50;34.50
81222;DHT22;70691;52.492;13.420;2023-07-24T08:26:10;27.60;34.30
81222;DHT22;70691;52.492;13.420;2023-07-24T08:28:36;27.70;34.30
81222;DHT22;70691;52.492;13.420;2023-07-24T08:31:01;27.80;33.90
81222;DHT22;70691;52.492;13.420;2023-07-24T08:33:28;27.90;33.80
81222;DHT22;70691;52.492;13.420;2023-07-24T08:36:02;28.00;33.80
81222;DHT22;70691;52.492;13.420;2023-07-24T08:38:28;28.10;33.60
81222;DHT22;70691;52.492;13.420;2023-07-24T08:41:11;28.20;34.00
81222;DHT22;70691;52.492;13.420;2023-07-24T08:43:38;28.30;32.90
81222;DHT22;70691;52.492;13.420;2023-07-24T08:46:05;28.30;33.20
81222;DHT22;70691;52.492;13.420;2023-07-24T08:48:39;28.20;33.20
81222;DHT22;70691;52.492;13.420;2023-07-24T08:51:06;28.20;33.20
81222;DHT22;70691;52.492;13.420;2023-07-24T08:53:34;28.10;33.20
81222;DHT22;70691;52.492;13.420;2023-07-24T08:56:04;28.10;33.40
81222;DHT22;70691;52.492;13.420;2023-07-24T08:58:30;28.20;33.20
81222;DHT22;70691;52.492;13.420;2023-07-24T09:00:57;28.30;33.40
81222;DHT22;70691;52.492;13.420;2023-07-24T09:03:24;28.40;33.30
81222;DHT22;70691;52.492;13.420;2023-07-24T09:05:49;28.40;33.20
81222;DHT22;70691;52.492;13.420;2023-07-24T09:08:32;28.50;32.90
81222;DHT22;70691;52.492;13.420;2023-07-24T09:10:59;28.60;32.80
81222;DHT22;70691;52.492;13.420;2023-07-24T09:13:25;28.50;32.70
81222;DHT22;70691;52.492;13.420;2023-07-24T09:15:51;28.50;32.90
81222;DHT22;70691;52.492;13.420;2023-07-24T09:18:17;28.50;32.80
81222;DHT22;70691;52.492;13.420;2023-07-24T09:20:49;28.50;32.60
81222;DHT22;70691;52.492;13.420;2023-07-24T09:23:27;28.50;32.20
81222;DHT22;70691;52.492;13.420;2023-07-24T09:26:05;28.50;32.40
81222;DHT22;70691;52.492;13.420;2023-07-24T09:28:40;28.60;32.60
81222;DHT22;70691;52.492;13.420;2023-07-24T09:31:13;28.60;32.40
81222;DHT22;70691;52.492;13.420;2023-07-24T09:33:49;28.60;32.60
81222;DHT22;70691;52.492;13.420;2023-07-24T09:36:18;28.60;32.50
81222;DHT22;70691;52.492;13.420;2023-07-24T09:38:43;28.70;32.60
81222;DHT22;70691;52.492;13.420;2023-07-24T09:41:09;28.80;32.40
81222;DHT22;70691;52.492;13.420;2023-07-24T09:43:35;28.90;31.40
81222;DHT22;70691;52.492;13.420;2023-07-24T09:46:10;28.90;31.60
81222;DHT22;70691;52.492;13.420;2023-07-24T09:48:35;28.90;31.80
81222;DHT22;70691;52.492;13.420;2023-07-24T09:51:02;29.10;31.50
81222;DHT22;70691;52.492;13.420;2023-07-24T09:53:38;29.10;31.30
81222;DHT22;70691;52.492;13.420;2023-07-24T09:56:06;29.30;31.10
81222;DHT22;70691;52.492;13.420;2023-07-24T09:58:34;29.40;30.70
81222;DHT22;70691;52.492;13.420;2023-07-24T10:01:02;29.60;30.50
81222;DHT22;70691;52.492;13.420;2023-07-24T10:03:37;29.80;30.00
81222;DHT22;70691;52.492;13.420;2023-07-24T10:06:03;29.90;30.00
81222;DHT22;70691;52.492;13.420;2023-07-24T10:08:30;29.90;29.70
81222;DHT22;70691;52.492;13.420;2023-07-24T10:11:00;29.90;29.50
81222;DHT22;70691;52.492;13.420;2023-07-24T10:13:26;29.80;29.70
81222;DHT22;70691;52.492;13.420;2023-07-24T10:15:53;29.70;29.80
81222;DHT22;70691;52.492;13.420;2023-07-24T10:18:28;29.60;29.90
81222;DHT22;70691;52.492;13.420;2023-07-24T10:21:05;29.70;29.70
81222;DHT22;70691;52.492;13.420;2023-07-24T10:23:34;29.80;29.40
81222;DHT22;70691;52.492;13.420;2023-07-24T10:26:05;29.90;29.10
81222;DHT22;70691;52.492;13.420;2023-07-24T10:28:33;29.90;29.30
81222;DHT22;70691;52.492;13.420;2023-07-24T10:31:01;29.90;29.20
81222;DHT22;70691;52.492;13.420;2023-07-24T10:33:30;29.90;29.20
81222;DHT22;70691;52.492;13.420;2023-07-24T10:36:07;30.00;29.40
81222;DHT22;70691;52.492;13.420;2023-07-24T10:38:37;30.10;29.10
81222;DHT22;70691;52.492;13.420;2023-07-24T10:41:04;30.10;28.80
81222;DHT22;70691;52.492;13.420;2023-07-24T10:43:49;30.20;27.90
81222;DHT22;70691;52.492;13.420;2023-07-24T10:46:17;30.10;27.60
81222;DHT22;70691;52.492;13.420;2023-07-24T10:48:48;30.00;27.80
81222;DHT22;70691;52.492;13.420;2023-07-24T10:51:14;30.00;28.00
81222;DHT22;70691;52.492;13.420;2023-07-24T10:53:47;30.00;27.60
81222;DHT22;70691;52.492;13.420;2023-07-24T10:56:15;30.10;27.60
81222;DHT22;70691;52.492;13.420;2023-07-24T10:58:40;30.20;27.60
81222;DHT22;70691;52.492;13.420;2023-07-24T11:01:07;30.20;27.00
81222;DHT22;70691;52.492;13.420;2023-07-24T11:03:35;30.30;27.20
81222;DHT22;70691;52.492;13.420;2023-07-24T11:06:02;30.40;26.80
81222;DHT22;70691;52.492;13.420;2023-07-24T11:08:28;30.50;26.70
81222;DHT22;70691;52.492;13.420;2023-07-24T11:10:55;30.60;26.20
81222;DHT22;70691;52.492;13.420;2023-07-24T11:13:24;30.80;26.00
81222;DHT22;70691;52.492;13.420;2023-07-24T11:15:51;30.80;25.80
81222;DHT22;70691;52.492;13.420;2023-07-24T11:18:17;30.90;25.70
81222;DHT22;70691;52.492;13.420;2023-07-24T11:20:50;30.90;25.80
81222;DHT22;70691;52.492;13.420;2023-07-24T11:23:17;30.90;25.80
81222;DHT22;70691;52.492;13.420;2023-07-24T11:25:43;30.90;26.00
81222;DHT22;70691;52.492;13.420;2023-07-24T11:28:11;30.90;25.90
81222;DHT22;70691;52.492;13.420;2023-07-24T11:30:37;30.90;25.80
81222;DHT22;70691;52.492;13.420;2023-07-24T11:33:05;30.90;25.60
81222;DHT22;70691;52.492;13.420;2023-07-24T11:35:32;30.70;25.90
81222;DHT22;70691;52.492;13.420;2023-07-24T11:37:58;30.50;26.30
81222;DHT22;70691;52.492;13.420;2023-07-24T11:40:38;30.60;26.00
81222;DHT22;70691;52.492;13.420;2023-07-24T11:43:05;30.50;26.40
81222;DHT22;70691;52.492;13.420;2023-07-24T11:45:31;30.50;26.40
81222;DHT22;70691;52.492;13.420;2023-07-24T11:47:57;30.50;26.40
81222;DHT22;70691;52.492;13.420;2023-07-24T11:50:23;30.50;26.30
81222;DHT22;70691;52.492;13.420;2023-07-24T11:52:51;30.50;26.30
81222;DHT22;70691;52.492;13.420;2023-07-24T11:55:19;30.60;27.20
81222;DHT22;70691;52.492;13.420;2023-07-24T11:58:03;30.60;26.30
81222;DHT22;70691;52.492;13.420;2023-07-24T12:00:32;30.60;26.10
81222;DHT22;70691;52.492;13.420;2023-07-24T12:03:01;30.60;26.00
81222;DHT22;70691;52.492;13.420;2023-07-24T12:05:30;30.60;26.10
81222;DHT22;70691;52.492;13.420;2023-07-24T12:08:02;30.50;26.00
81222;DHT22;70691;52.492;13.420;2023-07-24T12:10:28;30.40;26.10
81222;DHT22;70691;52.492;13.420;2023-07-24T12:12:55;30.20;26.40
81222;DHT22;70691;52.492;13.420;2023-07-24T12:15:23;30.10;26.50
81222;DHT22;70691;52.492;13.420;2023-07-24T12:17:49;29.90;27.70
81222;DHT22;70691;52.492;13.420;2023-07-24T12:20:14;29.80;27.10
81222;DHT22;70691;52.492;13.420;2023-07-24T12:22:41;29.70;26.60
81222;DHT22;70691;52.492;13.420;2023-07-24T12:25:06;29.70;28.50
81222;DHT22;70691;52.492;13.420;2023-07-24T12:27:32;29.50;27.30
81222;DHT22;70691;52.492;13.420;2023-07-24T12:30:01;29.40;28.60
81222;DHT22;70691;52.492;13.420;2023-07-24T12:32:28;29.10;29.70
81222;DHT22;70691;52.492;13.420;2023-07-24T12:34:53;28.90;30.50
81222;DHT22;70691;52.492;13.420;2023-07-24T12:37:19;28.50;32.00
81222;DHT22;70691;52.492;13.420;2023-07-24T12:39:46;28.00;33.50
81222;DHT22;70691;52.492;13.420;2023-07-24T12:42:12;27.70;34.60
81222;DHT22;70691;52.492;13.420;2023-07-24T12:44:38;27.40;35.10
81222;DHT22;70691;52.492;13.420;2023-07-24T12:47:04;27.20;35.60
81222;DHT22;70691;52.492;13.420;2023-07-24T12:49:30;27.10;36.70
81222;DHT22;70691;52.492;13.420;2023-07-24T12:51:55;27.10;37.10
81222;DHT22;70691;52.492;13.420;2023-07-24T12:54:21;27.10;37.90
81222;DHT22;70691;52.492;13.420;2023-07-24T12:56:48;27.10;37.80
81222;DHT22;70691;52.492;13.420;2023-07-24T12:59:14;27.00;37.90
81222;DHT22;70691;52.492;13.420;2023-07-24T13:01:40;27.00;38.50
81222;DHT22;70691;52.492;13.420;2023-07-24T13:04:06;27.10;38.50
81222;DHT22;70691;52.492;13.420;2023-07-24T13:06:32;27.10;38.50
81222;DHT22;70691;52.492;13.420;2023-07-24T13:08:58;27.00;38.70
81222;DHT22;70691;52.492;13.420;2023-07-24T13:11:23;26.90;38.90
81222;DHT22;70691;52.492;13.420;2023-07-24T13:13:49;26.80;40.00
81222;DHT22;70691;52.492;13.420;2023-07-24T13:16:18;26.80;39.60
81222;DHT22;70691;52.492;13.420;2023-07-24T13:18:43;26.50;40.70
81222;DHT22;70691;52.492;13.420;2023-07-24T13:21:09;26.40;41.20
81222;DHT22;70691;52.492;13.420;2023-07-24T13:23:35;26.30;41.50
81222;DHT22;70691;52.492;13.420;2023-07-24T13:26:01;26.40;40.90
81222;DHT22;70691;52.492;13.420;2023-07-24T13:28:27;26.60;40.30
81222;DHT22;70691;52.492;13.420;2023-07-24T13:30:53;26.70;40.10
81222;DHT22;70691;52.492;13.420;2023-07-24T13:33:18;27.00;39.30
81222;DHT22;70691;52.492;13.420;2023-07-24T13:35:44;27.00;39.20
81222;DHT22;70691;52.492;13.420;2023-07-24T13:38:10;27.20;38.90
81222;DHT22;70691;52.492;13.420;2023-07-24T13:40:36;27.10;39.40
81222;DHT22;70691;52.492;13.420;2023-07-24T13:43:02;27.30;38.50
81222;DHT22;70691;52.492;13.420;2023-07-24T13:45:29;27.40;38.90
81222;DHT22;70691;52.492;13.420;2023-07-24T13:47:56;27.50;38.70
81222;DHT22;70691;52.492;13.420;2023-07-24T13:50:22;27.60;38.50
81222;DHT22;70691;52.492;13.420;2023-07-24T13:52:47;27.80;38.10
81222;DHT22;70691;52.492;13.420;2023-07-24T13:55:13;27.90;37.50
81222;DHT22;70691;52.492;13.420;2023-07-24T13:57:39;27.90;37.50
81222;DHT22;70691;52.492;13.420;2023-07-24T14:00:06;28.00;37.80
81222;DHT22;70691;52.492;13.420;2023-07-24T14:02:31;28.10;37.70
81222;DHT22;70691;52.492;13.420;2023-07-24T14:04:57;28.10;37.90
81222;DHT22;70691;52.492;13.420;2023-07-24T14:07:23;28.10;38.10
81222;DHT22;70691;52.492;13.420;2023-07-24T14:09:48;28.00;38.40
81222;DHT22;70691;52.492;13.420;2023-07-24T14:12:14;28.00;38.60
81222;DHT22;70691;52.492;13.420;2023-07-24T14:14:40;27.80;38.90
81222;DHT22;70691;52.492;13.420;2023-07-24T14:17:05;27.70;39.70
81222;DHT22;70691;52.492;13.420;2023-07-24T14:19:33;27.70;40.10
81222;DHT22;70691;52.492;13.420;2023-07-24T14:21:59;27.60;40.30
81222;DHT22;70691;52.492;13.420;2023-07-24T14:24:25;27.50;40.70
81222;DHT22;70691;52.492;13.420;2023-07-24T14:26:51;27.50;41.00
81222;DHT22;70691;52.492;13.420;2023-07-24T14:29:16;27.50;40.70
81222;DHT22;70691;52.492;13.420;2023-07-24T14:31:43;27.60;40.80
81222;DHT22;70691;52.492;13.420;2023-07-24T14:34:09;27.60;40.90
81222;DHT22;70691;52.492;13.420;2023-07-24T14:36:38;27.70;40.20
81222;DHT22;70691;52.492;13.420;2023-07-24T14:39:04;27.70;40.60
81222;DHT22;70691;52.492;13.420;2023-07-24T14:41:34;27.50;41.60
81222;DHT22;70691;52.492;13.420;2023-07-24T14:43:59;27.40;41.80
81222;DHT22;70691;52.492;13.420;2023-07-24T14:46:25;27.30;41.50
81222;DHT22;70691;52.492;13.420;2023-07-24T14:48:54;27.30;41.60
81222;DHT22;70691;52.492;13.420;2023-07-24T14:51:19;27.40;41.70
81222;DHT22;70691;52.492;13.420;2023-07-24T14:53:45;27.30;41.70
81222;DHT22;70691;52.492;13.420;2023-07-24T14:56:11;27.30;41.90
81222;DHT22;70691;52.492;13.420;2023-07-24T14:58:36;27.40;38.50
81222;DHT22;70691;52.492;13.420;2023-07-24T15:01:02;27.30;37.40
81222;DHT22;70691;52.492;13.420;2023-07-24T15:03:28;27.30;36.30
81222;DHT22;70691;52.492;13.420;2023-07-24T15:05:53;27.30;36.70
81222;DHT22;70691;52.492;13.420;2023-07-24T15:08:21;27.20;37.00
81222;DHT22;70691;52.492;13.420;2023-07-24T15:10:47;27.20;36.50
81222;DHT22;70691;52.492;13.420;2023-07-24T15:13:12;27.20;36.60
81222;DHT22;70691;52.492;13.420;2023-07-24T15:15:38;27.20;36.70